Time;durP1;ratioP1;P1;durP2;ratioP2;P2;SDS_P1;SDS_P2;PMS_P1;PMS_P2;Temp;Humidity;BMP_temperature;BMP_pressure;BME280_temperature;BME280_humidity;BME280_pressure;Samples;Min_cycle;Max_cycle;Signal;HPM_P1;HPM_P2
2023/07/01 00:00:40;;;;;;;10.52;2.70;;;17.50;99.90;;;;;;5080158;28;20047;-57
2023/07/01 00:03:07;;;;;;;11.10;3.30;;;17.50;99.90;;;;;;5079089;28;20071;-57
2023/07/01 00:05:33;;;;;;;8.40;2.70;;;17.40;99.90;;;;;;5079976;28;20055;-57
2023/07/01 00:07:59;;;;;;;10.68;2.65;;;17.50;99.90;;;;;;5078128;28;20074;-57
2023/07/01 00:10:25;;;;;;;8.43;2.58;;;17.50;99.90;;;;;;5080356;28;20044;-57
2023/07/01 00:12:52;;;;;;;7.20;2.67;;;17.50;99.90;;;;;;5079122;28;20102;-57
2023/07/01 00:15:18;;;;;;;7.32;2.85;;;17.50;99.90;;;;;;5078388;28;20068;-55
2023/07/01 00:17:44;;;;;;;9.00;2.53;;;17.50;99.90;;;;;;5079801;28;20046;-56
2023/07/01 00:20:10;;;;;;;7.30;2.63;;;17.60;99.90;;;;;;5079084;28;20087;-56
2023/07/01 00:22:36;;;;;;;8.98;2.22;;;17.50;99.90;;;;;;5079961;28;20040;-58
2023/07/01 00:25:02;;;;;;;11.35;2.95;;;17.50;99.90;;;;;;5078384;28;20086;-56
2023/07/01 00:27:28;;;;;;;10.77;3.10;;;17.50;99.90;;;;;;5079857;28;20072;-57
2023/07/01 00:29:54;;;;;;;7.78;2.63;;;17.50;99.90;;;;;;5078373;28;20055;-57
2023/07/01 00:32:19;;;;;;;7.72;2.65;;;17.50;99.90;;;;;;5079231;28;20125;-57
2023/07/01 00:34:45;;;;;;;8.27;2.50;;;17.50;99.90;;;;;;5078089;28;20059;-56
2023/07/01 00:37:11;;;;;;;9.00;2.33;;;17.50;99.90;;;;;;5078255;28;20045;-56
2023/07/01 00:39:37;;;;;;;10.95;3.00;;;17.50;99.90;;;;;;5079904;28;20092;-58
2023/07/01 00:42:03;;;;;;;9.75;2.78;;;17.50;99.90;;;;;;5078004;28;20076;-57
2023/07/01 00:44:28;;;;;;;11.18;2.78;;;17.40;99.90;;;;;;5079624;28;20048;-57
2023/07/01 00:46:54;;;;;;;7.85;2.28;;;17.50;99.90;;;;;;5078245;28;20162;-57
2023/07/01 00:49:21;;;;;;;8.98;2.70;;;17.50;99.90;;;;;;5076828;28;20340;-57
2023/07/01 00:51:47;;;;;;;10.38;2.72;;;17.40;99.90;;;;;;5068290;28;20468;-57
2023/07/01 00:54:12;;;;;;;8.90;2.63;;;17.40;99.90;;;;;;5078322;28;20044;-57
2023/07/01 00:56:38;;;;;;;9.52;2.10;;;17.30;99.90;;;;;;5078867;28;20052;-57
2023/07/01 00:59:04;;;;;;;8.60;2.22;;;17.40;99.90;;;;;;5077779;28;20503;-57
2023/07/01 01:01:34;;;;;;;8.68;2.42;;;17.40;99.90;;;;;;5079180;28;20044;-57
2023/07/01 01:04:16;;;;;;;6.25;2.40;;;17.40;99.90;;;;;;5077594;28;20040;-57
2023/07/01 01:06:54;;;;;;;8.35;2.47;;;17.40;99.90;;;;;;5078520;28;20051;-57
2023/07/01 01:09:47;;;;;;;10.95;2.55;;;17.40;99.90;;;;;;5079109;28;20059;-56
2023/07/01 01:12:13;;;;;;;8.43;2.85;;;17.40;99.90;;;;;;5077517;28;20076;-57
2023/07/01 01:14:42;;;;;;;10.13;2.72;;;17.40;99.90;;;;;;5077401;28;20044;-56
2023/07/01 01:17:14;;;;;;;8.00;2.70;;;17.40;99.90;;;;;;5078022;28;20120;-56
2023/07/01 01:19:50;;;;;;;9.45;2.60;;;17.30;99.90;;;;;;5078423;28;20074;-57
2023/07/01 01:22:17;;;;;;;8.18;2.67;;;17.30;99.90;;;;;;5079021;28;20043;-56
2023/07/01 01:24:49;;;;;;;9.60;2.85;;;17.30;99.90;;;;;;5077494;28;20087;-56
2023/07/01 01:27:19;;;;;;;8.38;3.03;;;17.30;99.90;;;;;;5078856;28;20036;-57
2023/07/01 01:29:45;;;;;;;10.05;2.75;;;17.30;99.90;;;;;;5077620;28;20036;-56
2023/07/01 01:32:11;;;;;;;8.00;2.72;;;17.30;99.90;;;;;;5078723;28;20613;-57
2023/07/01 01:34:36;;;;;;;8.95;2.95;;;17.20;99.90;;;;;;5078337;28;20101;-56
2023/07/01 01:37:10;;;;;;;9.98;2.97;;;17.10;99.90;;;;;;5077705;28;20120;-56
2023/07/01 01:39:43;;;;;;;10.32;2.80;;;17.00;99.90;;;;;;5078794;28;20041;-57
2023/07/01 01:42:29;;;;;;;14.10;4.20;;;16.80;99.90;;;;;;5077011;28;21047;-57
2023/07/01 01:44:56;;;;;;;8.18;3.10;;;16.80;99.90;;;;;;5078622;28;20094;-57
2023/07/01 01:47:26;;;;;;;9.05;2.95;;;16.60;99.90;;;;;;5077883;28;20045;-55
2023/07/01 01:49:58;;;;;;;8.52;3.00;;;16.60;99.90;;;;;;5077718;28;20135;-57
2023/07/01 01:52:25;;;;;;;9.43;3.30;;;16.50;99.90;;;;;;5078701;28;20092;-56
2023/07/01 01:54:53;;;;;;;8.55;2.90;;;16.50;99.90;;;;;;5077210;28;20033;-57
2023/07/01 01:57:19;;;;;;;8.50;3.35;;;16.50;99.90;;;;;;5078645;28;20651;-57
2023/07/01 01:59:46;;;;;;;11.18;3.50;;;16.30;99.90;;;;;;5075703;28;20503;-57
2023/07/01 02:02:11;;;;;;;7.85;3.53;;;16.30;99.90;;;;;;5078350;28;20036;-57
2023/07/01 02:04:38;;;;;;;8.48;3.03;;;16.30;99.90;;;;;;5077455;28;20060;-57
2023/07/01 02:07:04;;;;;;;8.38;3.42;;;16.30;99.90;;;;;;5077613;28;20041;-57
2023/07/01 02:09:29;;;;;;;9.57;3.22;;;16.30;99.90;;;;;;5080830;28;20104;-57
2023/07/01 02:11:56;;;;;;;9.40;3.10;;;16.30;99.90;;;;;;5081038;28;20044;-57
2023/07/01 02:14:22;;;;;;;7.40;3.63;;;16.30;99.90;;;;;;5082605;28;20051;-57
2023/07/01 02:16:50;;;;;;;10.43;3.47;;;16.30;99.90;;;;;;5080890;28;20032;-57
2023/07/01 02:19:15;;;;;;;10.07;3.45;;;16.30;99.90;;;;;;5082001;28;20045;-57
2023/07/01 02:21:41;;;;;;;9.75;3.42;;;16.40;99.90;;;;;;5081609;28;20087;-57
2023/07/01 02:24:07;;;;;;;7.63;3.47;;;16.40;99.90;;;;;;5081680;28;20050;-56
2023/07/01 02:26:32;;;;;;;8.25;3.50;;;16.40;99.90;;;;;;5080872;28;20044;-56
2023/07/01 02:28:58;;;;;;;9.00;3.30;;;16.40;99.90;;;;;;5080712;28;20135;-57
2023/07/01 02:31:24;;;;;;;9.32;3.50;;;16.40;99.90;;;;;;5082157;28;20040;-57
2023/07/01 02:33:50;;;;;;;12.15;3.70;;;16.40;99.90;;;;;;5080416;28;20060;-57
2023/07/01 02:36:16;;;;;;;9.45;4.00;;;16.40;99.90;;;;;;5081792;28;20063;-57
2023/07/01 02:38:42;;;;;;;7.15;3.40;;;16.40;99.90;;;;;;5081085;28;20036;-56
2023/07/01 02:41:08;;;;;;;7.82;3.55;;;16.50;99.90;;;;;;5081265;28;20049;-58
2023/07/01 02:43:33;;;;;;;9.18;3.70;;;16.50;99.90;;;;;;5080694;28;20041;-57
2023/07/01 02:45:59;;;;;;;8.85;3.45;;;16.50;99.90;;;;;;5080514;28;20050;-57
2023/07/01 02:48:25;;;;;;;11.38;4.00;;;16.50;99.90;;;;;;5081382;28;20044;-57
2023/07/01 02:50:50;;;;;;;7.85;3.58;;;16.50;99.90;;;;;;5080256;28;20051;-56
2023/07/01 02:53:18;;;;;;;8.82;3.20;;;16.50;99.90;;;;;;5081663;28;20041;-57
2023/07/01 02:55:43;;;;;;;6.75;3.15;;;16.60;99.90;;;;;;5080604;28;20585;-57
2023/07/01 02:58:09;;;;;;;8.82;3.70;;;16.60;99.90;;;;;;5081147;28;20104;-57
2023/07/01 03:00:35;;;;;;;13.05;3.83;;;16.60;99.90;;;;;;5081292;28;20086;-56
2023/07/01 03:03:07;;;;;;;10.95;3.75;;;16.60;99.90;;;;;;5080133;28;20048;-56
2023/07/01 03:05:33;;;;;;;;;;;16.60;99.90;;;;;;5081892;28;20052;-56
2023/07/01 03:07:59;;;;;;;11.77;3.95;;;16.60;99.90;;;;;;5079739;28;19924;-57
2023/07/01 03:10:24;;;;;;;8.43;3.85;;;16.70;99.90;;;;;;5081315;28;20047;-56
2023/07/01 03:12:50;;;;;;;12.27;4.68;;;16.60;99.90;;;;;;5080205;28;20128;-57
2023/07/01 03:15:16;;;;;;;11.52;5.45;;;16.60;99.90;;;;;;5080506;28;20044;-57
2023/07/01 03:17:42;;;;;;;11.60;5.22;;;16.50;99.90;;;;;;5081042;28;20091;-57
2023/07/01 03:20:20;;;;;;;12.50;5.13;;;16.50;99.90;;;;;;5079594;28;20044;-57
2023/07/01 03:22:45;;;;;;;11.13;5.38;;;16.50;99.90;;;;;;5081214;28;20048;-57
2023/07/01 03:25:11;;;;;;;9.30;5.20;;;16.50;99.90;;;;;;5079746;28;20079;-57
2023/07/01 03:27:37;;;;;;;10.18;5.18;;;16.50;99.90;;;;;;5079693;28;20401;-57
2023/07/01 03:30:03;;;;;;;11.63;4.95;;;16.40;99.90;;;;;;5079978;28;20036;-57
2023/07/01 03:32:28;;;;;;;11.73;5.60;;;16.40;99.90;;;;;;5080327;28;20072;-57
2023/07/01 03:34:55;;;;;;;10.77;6.00;;;16.40;99.90;;;;;;5080832;28;20044;-56
2023/07/01 03:37:20;;;;;;;9.65;5.72;;;16.30;99.90;;;;;;5079430;28;20451;-56
2023/07/01 03:39:46;;;;;;;10.55;6.25;;;16.30;99.90;;;;;;5081252;28;20033;-57
2023/07/01 03:42:12;;;;;;;12.23;6.80;;;16.10;99.90;;;;;;5079306;28;20473;-57
2023/07/01 03:44:37;;;;;;;15.25;7.57;;;16.00;99.90;;;;;;5080736;28;20048;-57
2023/07/01 03:47:03;;;;;;;10.35;6.70;;;16.10;99.90;;;;;;5079659;28;20207;-56
2023/07/01 03:49:30;;;;;;;10.57;6.82;;;16.00;99.90;;;;;;5080258;28;20079;-56
2023/07/01 03:51:55;;;;;;;12.68;7.78;;;16.00;99.90;;;;;;5080434;28;20072;-57
2023/07/01 03:54:21;;;;;;;10.65;7.53;;;15.90;99.90;;;;;;5079455;28;20044;-57
2023/07/01 03:56:47;;;;;;;12.05;7.78;;;15.90;99.90;;;;;;5080451;28;20050;-56
2023/07/01 03:59:12;;;;;;;13.07;7.15;;;15.90;99.90;;;;;;5078775;28;20133;-57
2023/07/01 04:01:38;;;;;;;12.02;8.07;;;15.80;99.90;;;;;;5080357;28;20041;-57
2023/07/01 04:04:04;;;;;;;13.85;7.07;;;15.80;99.90;;;;;;5079150;28;20469;-57
2023/07/01 04:06:29;;;;;;;13.43;7.80;;;15.90;99.90;;;;;;5079676;28;20092;-57
2023/07/01 04:08:55;;;;;;;15.25;7.90;;;15.80;99.90;;;;;;5079959;28;20508;-56
2023/07/01 04:11:21;;;;;;;12.93;7.22;;;15.90;99.90;;;;;;5079131;28;20048;-58
2023/07/01 04:13:47;;;;;;;10.70;7.68;;;15.90;99.90;;;;;;5080133;28;20071;-58
2023/07/01 04:16:13;;;;;;;10.98;7.65;;;15.80;99.90;;;;;;5078443;28;20127;-58
2023/07/01 04:18:39;;;;;;;14.38;7.97;;;15.80;99.90;;;;;;5080238;28;20515;-58
2023/07/01 04:21:05;;;;;;;13.73;7.85;;;15.80;99.90;;;;;;5078531;28;20123;-56
2023/07/01 04:23:30;;;;;;;13.73;8.02;;;15.80;99.90;;;;;;5079746;28;20041;-58
2023/07/01 04:25:56;;;;;;;11.75;7.00;;;15.80;99.90;;;;;;5078052;28;20045;-57
2023/07/01 04:28:22;;;;;;;12.73;7.68;;;15.80;99.90;;;;;;5077439;28;20118;-57
2023/07/01 04:30:47;;;;;;;11.38;7.65;;;15.80;99.90;;;;;;5078912;28;20142;-57
2023/07/01 04:33:13;;;;;;;12.52;7.88;;;15.80;99.90;;;;;;5077921;28;20050;-57
2023/07/01 04:35:39;;;;;;;10.73;7.45;;;15.80;99.90;;;;;;5079967;28;20033;-58
2023/07/01 04:38:04;;;;;;;12.30;7.00;;;15.70;99.90;;;;;;5078054;28;20036;-57
2023/07/01 04:40:30;;;;;;;13.05;7.70;;;15.80;99.90;;;;;;5079399;28;20045;-57
2023/07/01 04:42:56;;;;;;;13.27;8.18;;;15.80;99.90;;;;;;5077523;28;20043;-56
2023/07/01 04:45:21;;;;;;;12.65;7.38;;;15.70;99.90;;;;;;5078914;28;20072;-57
2023/07/01 04:47:48;;;;;;;13.70;7.57;;;15.80;99.90;;;;;;5079653;28;20041;-57
2023/07/01 04:50:14;;;;;;;14.45;8.20;;;15.90;99.90;;;;;;5078643;28;20056;-57
2023/07/01 04:52:39;;;;;;;12.68;7.68;;;15.80;99.90;;;;;;5079534;28;20624;-57
2023/07/01 04:55:06;;;;;;;13.75;7.65;;;15.80;99.90;;;;;;5077737;28;20044;-57
2023/07/01 04:57:32;;;;;;;11.57;7.82;;;15.70;99.90;;;;;;5079153;28;20059;-57
2023/07/01 04:59:57;;;;;;;11.63;7.75;;;15.90;99.90;;;;;;5078323;28;20079;-57
2023/07/01 05:02:23;;;;;;;13.73;7.70;;;15.80;99.90;;;;;;5078715;28;20036;-57
2023/07/01 05:04:49;;;;;;;11.93;7.40;;;15.90;99.90;;;;;;5078887;28;20056;-56
2023/07/01 05:07:15;;;;;;;11.38;7.80;;;15.90;99.90;;;;;;5077702;28;20040;-56
2023/07/01 05:09:40;;;;;;;11.30;7.72;;;15.70;99.90;;;;;;5079314;28;20113;-56
2023/07/01 05:12:06;;;;;;;14.32;8.18;;;15.90;99.90;;;;;;5077288;28;20044;-57
2023/07/01 05:14:32;;;;;;;12.88;8.48;;;15.80;99.90;;;;;;5079149;28;20051;-57
2023/07/01 05:16:58;;;;;;;17.83;8.32;;;15.80;99.90;;;;;;5077879;28;20374;-57
2023/07/01 05:19:23;;;;;;;13.82;8.35;;;15.80;99.90;;;;;;5078497;28;20044;-57
2023/07/01 05:21:51;;;;;;;10.73;7.75;;;15.80;99.90;;;;;;5075463;28;20044;-57
2023/07/01 05:24:17;;;;;;;11.38;7.07;;;15.90;99.90;;;;;;5074836;28;20044;-58
2023/07/01 05:26:48;;;;;;;12.52;8.27;;;15.80;99.90;;;;;;5075267;28;20051;-57
2023/07/01 05:29:14;;;;;;;12.60;8.33;;;15.90;99.90;;;;;;5074005;28;20056;-57
2023/07/01 05:31:39;;;;;;;11.10;7.63;;;15.80;99.90;;;;;;5075498;28;20197;-57
2023/07/01 05:34:05;;;;;;;13.13;7.90;;;15.90;99.90;;;;;;5073981;28;20040;-57
2023/07/01 05:36:31;;;;;;;11.52;8.15;;;15.80;99.90;;;;;;5074791;28;20052;-57
2023/07/01 05:38:57;;;;;;;13.68;8.13;;;15.90;99.90;;;;;;5075060;28;20071;-57
2023/07/01 05:41:23;;;;;;;12.98;8.48;;;15.80;99.90;;;;;;5074083;28;20036;-57
2023/07/01 05:43:49;;;;;;;13.38;8.45;;;15.80;99.90;;;;;;5067726;28;20044;-58
2023/07/01 05:46:15;;;;;;;12.95;8.52;;;16.00;99.90;;;;;;5067556;28;20047;-57
2023/07/01 05:48:42;;;;;;;12.27;8.45;;;16.00;99.90;;;;;;5074813;28;20032;-58
2023/07/01 05:51:08;;;;;;;13.75;8.73;;;15.90;99.90;;;;;;5073359;28;20056;-57
2023/07/01 05:53:34;;;;;;;10.68;8.73;;;16.00;99.90;;;;;;5074318;28;20048;-58
2023/07/01 05:55:59;;;;;;;14.23;8.82;;;16.10;99.90;;;;;;5074562;28;20044;-58
2023/07/01 05:58:25;;;;;;;11.52;8.88;;;16.00;99.90;;;;;;5074042;28;20048;-58
2023/07/01 06:00:51;;;;;;;14.07;9.27;;;16.10;99.90;;;;;;5075102;28;20067;-58
2023/07/01 06:03:16;;;;;;;15.60;9.15;;;16.00;99.90;;;;;;5073654;28;20048;-58
2023/07/01 06:05:42;;;;;;;13.35;9.23;;;16.00;99.90;;;;;;5074898;28;20112;-59
2023/07/01 06:08:07;;;;;;;15.25;9.80;;;16.00;99.90;;;;;;5073181;28;20045;-62
2023/07/01 06:10:33;;;;;;;14.18;9.88;;;16.00;99.90;;;;;;5074436;28;20063;-63
2023/07/01 06:12:59;;;;;;;11.73;9.32;;;16.00;99.90;;;;;;5074606;28;20629;-60
2023/07/01 06:15:25;;;;;;;14.45;9.95;;;16.10;99.90;;;;;;5074243;28;20040;-61
2023/07/01 06:17:50;;;;;;;15.05;9.93;;;16.10;99.90;;;;;;5075154;28;20043;-64
2023/07/01 06:20:16;;;;;;;14.40;10.05;;;16.10;99.90;;;;;;5073437;28;20313;-65
2023/07/01 06:22:42;;;;;;;15.60;10.55;;;16.10;99.90;;;;;;5071169;28;20248;-61
2023/07/01 06:25:10;;;;;;;12.50;9.88;;;16.00;99.90;;;;;;5063177;28;20550;-62
2023/07/01 06:27:36;;;;;;;12.95;10.07;;;16.10;99.90;;;;;;5058219;28;20063;-61
2023/07/01 06:30:03;;;;;;;13.75;9.88;;;16.10;99.90;;;;;;5060428;28;20479;-59
2023/07/01 06:32:29;;;;;;;15.88;10.25;;;16.00;99.90;;;;;;5056290;28;20049;-59
2023/07/01 06:34:56;;;;;;;14.82;10.57;;;16.00;99.90;;;;;;5071028;28;20044;-58
2023/07/01 06:37:21;;;;;;;15.75;10.48;;;16.10;99.90;;;;;;5056218;28;21024;-58
2023/07/01 06:39:47;;;;;;;13.52;10.43;;;16.10;99.90;;;;;;5054805;28;20049;-58
2023/07/01 06:42:13;;;;;;;14.05;10.07;;;16.10;99.90;;;;;;5051662;28;20049;-58
2023/07/01 06:44:39;;;;;;;13.98;10.10;;;16.30;99.90;;;;;;5054448;28;20044;-58
2023/07/01 06:47:05;;;;;;;13.27;9.40;;;16.10;99.90;;;;;;5053786;28;20414;-58
2023/07/01 06:49:32;;;;;;;11.70;9.70;;;16.30;99.90;;;;;;5054001;28;20041;-58
2023/07/01 06:51:58;;;;;;;13.10;10.00;;;16.20;99.90;;;;;;5061534;28;20041;-58
2023/07/01 06:54:23;;;;;;;14.80;10.10;;;16.30;99.90;;;;;;5071185;28;20047;-58
2023/07/01 06:56:49;;;;;;;14.35;10.45;;;16.30;99.90;;;;;;5057962;28;20143;-59
2023/07/01 06:59:15;;;;;;;12.55;9.43;;;16.30;99.90;;;;;;5074169;28;20104;-58
2023/07/01 07:01:40;;;;;;;12.73;9.40;;;16.20;99.90;;;;;;5077686;28;20055;-58
2023/07/01 07:04:06;;;;;;;12.95;8.82;;;16.20;99.90;;;;;;5075273;28;20630;-58
2023/07/01 07:06:32;;;;;;;11.57;8.68;;;16.30;99.90;;;;;;5077609;28;20044;-58
2023/07/01 07:08:58;;;;;;;10.38;8.25;;;16.20;99.90;;;;;;5077427;28;20044;-58
2023/07/01 07:11:24;;;;;;;11.07;7.75;;;16.40;99.90;;;;;;5077019;28;20047;-58
2023/07/01 07:13:50;;;;;;;9.70;7.47;;;16.30;99.90;;;;;;5078231;28;20059;-58
2023/07/01 07:16:15;;;;;;;9.23;6.63;;;16.40;99.90;;;;;;5076301;28;20052;-58
2023/07/01 07:18:41;;;;;;;9.13;6.40;;;16.30;99.90;;;;;;5076540;28;20048;-59
2023/07/01 07:21:07;;;;;;;9.52;6.45;;;16.40;99.90;;;;;;5076203;28;20086;-58
2023/07/01 07:23:32;;;;;;;9.07;6.40;;;16.50;99.90;;;;;;5077425;28;20044;-59
2023/07/01 07:25:58;;;;;;;9.30;6.68;;;16.50;99.90;;;;;;5077083;28;20040;-58
2023/07/01 07:28:24;;;;;;;9.02;6.53;;;16.60;99.90;;;;;;5076924;28;20765;-59
2023/07/01 07:30:50;;;;;;;8.43;5.97;;;16.70;99.90;;;;;;5077933;28;20070;-58
2023/07/01 07:33:15;;;;;;;8.50;5.75;;;16.50;99.90;;;;;;5069806;28;20092;-59
2023/07/01 07:35:41;;;;;;;8.55;5.68;;;16.60;99.90;;;;;;5065963;28;20105;-59
2023/07/01 07:38:07;;;;;;;8.57;5.60;;;16.70;99.90;;;;;;5058602;28;20045;-58
2023/07/01 07:40:32;;;;;;;8.23;5.22;;;16.60;99.90;;;;;;5076593;28;20048;-58
2023/07/01 07:42:58;;;;;;;8.43;5.65;;;16.80;99.90;;;;;;5077020;28;20086;-59
2023/07/01 07:45:23;;;;;;;8.70;5.50;;;16.70;99.90;;;;;;5076284;28;20048;-60
2023/07/01 07:47:49;;;;;;;8.05;5.72;;;16.70;99.90;;;;;;5077423;28;20040;-59
2023/07/01 07:50:15;;;;;;;8.48;5.88;;;16.90;99.90;;;;;;5075969;28;20060;-60
2023/07/01 07:52:41;;;;;;;7.68;5.80;;;16.80;99.90;;;;;;5076721;28;20061;-59
2023/07/01 07:55:07;;;;;;;8.07;5.70;;;16.70;99.90;;;;;;5075714;28;20060;-59
2023/07/01 07:57:33;;;;;;;7.95;5.97;;;16.80;99.90;;;;;;5076871;28;20048;-59
2023/07/01 08:00:00;;;;;;;8.13;5.60;;;16.90;99.90;;;;;;5076430;28;20040;-59
2023/07/01 08:02:25;;;;;;;7.32;5.28;;;16.90;99.90;;;;;;5075155;28;20048;-59
2023/07/01 08:04:51;;;;;;;6.80;4.65;;;16.90;99.90;;;;;;5076656;28;20060;-59
2023/07/01 08:07:17;;;;;;;7.57;4.63;;;17.00;99.90;;;;;;5075632;28;20065;-59
2023/07/01 08:09:42;;;;;;;7.43;4.72;;;16.90;99.90;;;;;;5076446;28;20062;-59
2023/07/01 08:12:08;;;;;;;7.55;4.10;;;17.10;99.90;;;;;;5075408;28;20047;-58
2023/07/01 08:14:34;;;;;;;6.65;4.25;;;16.90;99.90;;;;;;5075436;28;20043;-59
2023/07/01 08:17:00;;;;;;;6.95;4.03;;;17.10;99.90;;;;;;5075820;28;20100;-59
2023/07/01 08:19:26;;;;;;;6.75;3.88;;;17.20;99.90;;;;;;5069130;28;20053;-58
2023/07/01 08:21:51;;;;;;;6.00;3.80;;;17.20;99.90;;;;;;5065765;28;20074;-58
2023/07/01 08:24:17;;;;;;;6.28;3.88;;;17.20;99.90;;;;;;5067299;28;20059;-58
2023/07/01 08:26:43;;;;;;;7.18;3.88;;;17.20;99.90;;;;;;5066023;28;20045;-59
2023/07/01 08:29:10;;;;;;;6.50;4.20;;;17.20;99.90;;;;;;5055062;28;20579;-59
2023/07/01 08:31:36;;;;;;;6.45;3.90;;;17.30;99.90;;;;;;5056320;28;20041;-59
2023/07/01 08:34:02;;;;;;;6.30;4.00;;;17.30;99.90;;;;;;5060006;28;20052;-59
2023/07/01 08:36:28;;;;;;;6.28;3.58;;;17.30;99.90;;;;;;5072290;28;20496;-61
2023/07/01 08:38:54;;;;;;;6.60;4.25;;;17.20;99.90;;;;;;5056263;28;20053;-60
2023/07/01 08:41:24;;;;;;;6.65;4.10;;;17.20;99.90;;;;;;5055254;28;20041;-60
2023/07/01 08:43:52;;;;;;;7.03;4.20;;;17.00;99.90;;;;;;5056515;28;20051;-60
2023/07/01 08:46:19;;;;;;;6.60;4.00;;;17.20;99.90;;;;;;5054452;28;20159;-59
2023/07/01 08:48:46;;;;;;;5.72;3.28;;;17.30;99.90;;;;;;5075418;28;20119;-60
2023/07/01 08:51:26;;;;;;;6.40;3.88;;;17.10;99.90;;;;;;5073726;28;20055;-60
2023/07/01 08:53:52;;;;;;;6.10;3.55;;;17.20;99.90;;;;;;5075328;28;20090;-59
2023/07/01 08:56:21;;;;;;;6.07;3.50;;;17.30;99.90;;;;;;5076184;28;20084;-62
2023/07/01 08:58:48;;;;;;;6.20;3.10;;;17.20;99.90;;;;;;5074306;28;20557;-62
2023/07/01 09:01:16;;;;;;;6.72;3.78;;;17.40;99.90;;;;;;5075621;28;20044;-63
2023/07/01 09:03:41;;;;;;;6.32;3.70;;;17.60;99.90;;;;;;5074348;28;20622;-66
2023/07/01 09:06:08;;;;;;;5.78;2.97;;;17.50;99.90;;;;;;5075721;28;20075;-66
2023/07/01 09:08:40;;;;;;;5.53;3.13;;;17.20;99.90;;;;;;5075212;28;20044;-66
2023/07/01 09:11:18;;;;;;;7.18;3.45;;;17.20;99.90;;;;;;5075077;28;20040;-66
2023/07/01 09:13:44;;;;;;;6.75;3.50;;;17.30;99.90;;;;;;5075506;28;20080;-65
2023/07/01 09:16:10;;;;;;;6.18;3.05;;;17.10;99.90;;;;;;5058306;28;20049;-66
2023/07/01 09:18:36;;;;;;;5.40;2.88;;;17.40;99.90;;;;;;5055082;28;20119;-65
2023/07/01 09:21:02;;;;;;;6.35;3.38;;;17.50;99.90;;;;;;5054048;28;20130;-67
2023/07/01 09:23:29;;;;;;;6.13;2.97;;;17.20;99.90;;;;;;5054579;28;20108;-69
2023/07/01 09:26:21;;;;;;;6.88;2.95;;;17.40;99.90;;;;;;5061567;28;20156;-67
2023/07/01 09:28:53;;;;;;;5.45;2.70;;;17.60;99.90;;;;;;5065885;28;20068;-65
2023/07/01 09:31:18;;;;;;;8.05;2.63;;;17.20;99.90;;;;;;5064602;28;20416;-64
2023/07/01 09:33:58;;;;;;;5.53;2.40;;;17.40;99.90;;;;;;5064126;28;20055;-63
2023/07/01 09:36:28;;;;;;;4.15;1.88;;;17.20;99.90;;;;;;5069379;28;20079;-62
2023/07/01 09:38:55;;;;;;;4.53;2.05;;;17.40;99.90;;;;;;5053395;28;20048;-60
2023/07/01 09:41:24;;;;;;;4.28;2.08;;;17.10;99.90;;;;;;5054171;28;20048;-59
2023/07/01 09:43:54;;;;;;;4.93;2.08;;;17.40;99.90;;;;;;5055283;28;20053;-59
2023/07/01 09:46:20;;;;;;;4.68;2.13;;;17.70;99.90;;;;;;5062125;28;20052;-60
2023/07/01 09:48:56;;;;;;;7.07;2.25;;;17.50;99.90;;;;;;5063054;28;20530;-62
2023/07/01 09:51:25;;;;;;;6.22;2.83;;;17.80;99.90;;;;;;5054414;28;20108;-63
2023/07/01 09:53:51;;;;;;;7.07;3.10;;;17.80;99.90;;;;;;5053117;28;20037;-61
2023/07/01 09:56:19;;;;;;;5.25;2.67;;;17.60;99.90;;;;;;5055235;28;20053;-59
2023/07/01 09:58:46;;;;;;;7.63;3.45;;;17.30;99.90;;;;;;5053537;28;20449;-60
2023/07/01 10:01:13;;;;;;;7.38;4.00;;;18.00;99.90;;;;;;5057972;28;20053;-59
2023/07/01 10:03:40;;;;;;;7.38;4.28;;;17.80;99.90;;;;;;5062941;28;20104;-59
2023/07/01 10:06:06;;;;;;;9.15;4.82;;;17.90;99.90;;;;;;5063557;28;20061;-61
2023/07/01 10:08:33;;;;;;;8.20;5.25;;;18.10;99.90;;;;;;5062442;28;20063;-60
2023/07/01 10:11:21;;;;;;;8.35;5.55;;;18.10;99.90;;;;;;5064095;28;20052;-59
2023/07/01 10:13:51;;;;;;;9.15;5.70;;;18.40;99.90;;;;;;5064886;28;20033;-59
2023/07/01 10:16:18;;;;;;;9.57;6.05;;;17.80;99.90;;;;;;5062198;28;20120;-59
2023/07/01 10:18:45;;;;;;;10.20;6.72;;;18.10;99.90;;;;;;5063852;28;20079;-59
2023/07/01 10:21:28;;;;;;;13.13;7.50;;;17.80;99.90;;;;;;5064229;28;20060;-59
2023/07/01 10:24:02;;;;;;;14.13;7.95;;;17.80;99.90;;;;;;5062691;28;20052;-58
2023/07/01 10:26:39;;;;;;;14.05;8.00;;;18.20;99.90;;;;;;5061733;28;20063;-58
2023/07/01 10:29:27;;;;;;;12.18;8.25;;;17.90;99.90;;;;;;5063710;28;20080;-56
2023/07/01 10:32:08;;;;;;;13.25;7.90;;;18.10;99.90;;;;;;5067497;28;20063;-58
2023/07/01 10:34:52;;;;;;;12.27;8.60;;;18.10;99.90;;;;;;5067561;28;20041;-58
2023/07/01 10:37:25;;;;;;;12.02;7.80;;;18.10;99.90;;;;;;5066368;28;20068;-58
2023/07/01 10:39:56;;;;;;;12.13;8.45;;;18.10;99.90;;;;;;5048863;28;20124;-58
2023/07/01 10:42:30;;;;;;;11.32;8.25;;;18.00;99.90;;;;;;5066387;28;20036;-57
2023/07/01 10:45:11;;;;;;;13.15;8.45;;;18.00;99.90;;;;;;5067669;28;20040;-58
2023/07/01 10:47:38;;;;;;;12.07;7.40;;;18.20;99.90;;;;;;5067592;28;20055;-58
2023/07/01 10:50:08;;;;;;;9.80;7.15;;;18.10;99.90;;;;;;5065699;28;20041;-57
2023/07/01 10:52:57;;;;;;;10.48;6.70;;;18.10;99.90;;;;;;5074408;28;20044;-58
2023/07/01 10:55:43;;;;;;;12.30;6.75;;;18.20;99.90;;;;;;5070206;28;20056;-58
2023/07/01 10:58:24;;;;;;;11.18;7.38;;;18.30;99.90;;;;;;5061218;28;20051;-58
2023/07/01 11:00:56;;;;;;;10.80;7.43;;;18.40;99.90;;;;;;5065097;28;20060;-58
2023/07/01 11:03:37;;;;;;;11.45;8.18;;;18.50;99.90;;;;;;5069977;28;20036;-58
2023/07/01 11:06:07;;;;;;;10.57;8.27;;;18.30;99.90;;;;;;5064344;28;20390;-58
2023/07/01 11:08:43;;;;;;;12.77;8.75;;;18.40;99.90;;;;;;5073718;28;20099;-58
2023/07/01 11:11:09;;;;;;;12.50;8.68;;;18.40;99.90;;;;;;5064948;28;20049;-58
2023/07/01 11:13:35;;;;;;;14.93;8.50;;;18.30;99.90;;;;;;5066791;28;20183;-58
2023/07/01 11:16:09;;;;;;;13.55;8.45;;;18.30;99.90;;;;;;5070232;28;20045;-57
2023/07/01 11:18:41;;;;;;;11.25;8.00;;;18.20;99.90;;;;;;5061072;28;20044;-58
2023/07/01 11:21:12;;;;;;;11.40;8.13;;;18.40;99.90;;;;;;5063301;28;20051;-58
2023/07/01 11:23:42;;;;;;;10.80;8.10;;;18.30;99.90;;;;;;5076860;28;20432;-58
2023/07/01 11:26:08;;;;;;;10.82;7.82;;;18.50;99.90;;;;;;5080183;28;20100;-58
2023/07/01 11:28:36;;;;;;;10.85;7.95;;;18.40;99.90;;;;;;5074626;28;20071;-57
2023/07/01 11:31:22;;;;;;;11.68;8.43;;;18.40;99.90;;;;;;5074407;28;20040;-58
2023/07/01 11:33:53;;;;;;;12.30;8.13;;;18.50;99.90;;;;;;5073566;28;20068;-58
2023/07/01 11:36:21;;;;;;;15.52;9.98;;;18.50;99.90;;;;;;5079676;28;20036;-58
2023/07/01 11:38:48;;;;;;;11.02;8.48;;;18.40;99.90;;;;;;5080148;28;20040;-57
2023/07/01 11:41:19;;;;;;;11.50;7.82;;;18.40;99.90;;;;;;5079455;28;20037;-57
2023/07/01 11:43:45;;;;;;;13.93;8.55;;;18.40;99.90;;;;;;5080550;28;20182;-58
2023/07/01 11:46:12;;;;;;;12.77;9.27;;;18.40;99.90;;;;;;5068842;28;20059;-58
2023/07/01 11:48:39;;;;;;;11.52;7.70;;;18.20;99.90;;;;;;5071016;28;20045;-58
2023/07/01 11:51:05;;;;;;;13.80;8.02;;;18.10;99.90;;;;;;5064641;28;20052;-57
2023/07/01 11:53:31;;;;;;;11.23;7.88;;;18.30;99.90;;;;;;5072713;28;20040;-58
2023/07/01 11:55:58;;;;;;;12.95;8.07;;;18.40;99.90;;;;;;5067230;28;20063;-58
2023/07/01 11:58:29;;;;;;;12.85;8.55;;;18.50;99.90;;;;;;5064995;28;20059;-58
2023/07/01 12:00:55;;;;;;;12.77;8.13;;;18.70;99.90;;;;;;5070743;28;20056;-58
2023/07/01 12:03:21;;;;;;;13.40;9.00;;;19.00;99.90;;;;;;5069001;28;20995;-58
2023/07/01 12:05:47;;;;;;;13.70;8.85;;;18.90;99.90;;;;;;5066031;28;20089;-58
2023/07/01 12:08:13;;;;;;;13.43;8.57;;;18.80;99.90;;;;;;5068458;28;20048;-58
2023/07/01 12:10:41;;;;;;;13.90;9.38;;;18.70;99.90;;;;;;5063473;28;20037;-58
2023/07/01 12:13:07;;;;;;;15.65;9.18;;;18.60;99.90;;;;;;5070989;28;20048;-57
2023/07/01 12:15:50;;;;;;;10.70;8.40;;;18.70;99.90;;;;;;5066373;28;20107;-57
2023/07/01 12:18:21;;;;;;;14.27;8.98;;;18.60;99.90;;;;;;5058876;28;20037;-58
2023/07/01 12:20:47;;;;;;;12.73;8.15;;;18.60;99.90;;;;;;5062777;28;20045;-57
2023/07/01 12:23:12;;;;;;;13.10;8.32;;;18.70;99.90;;;;;;5063584;28;20067;-57
2023/07/01 12:25:38;;;;;;;12.35;7.18;;;19.00;99.90;;;;;;5065204;28;20048;-58
2023/07/01 12:28:05;;;;;;;10.77;6.57;;;19.10;99.90;;;;;;5064432;28;20178;-58
2023/07/01 12:30:30;;;;;;;9.80;5.95;;;19.30;99.90;;;;;;5064247;28;20048;-57
2023/07/01 12:32:56;;;;;;;9.45;5.57;;;19.20;99.90;;;;;;5060618;28;20032;-58
2023/07/01 12:35:22;;;;;;;10.73;5.97;;;19.20;99.90;;;;;;5063521;28;20053;-58
2023/07/01 12:37:49;;;;;;;9.27;5.90;;;19.30;99.90;;;;;;5066036;28;20049;-58
2023/07/01 12:40:15;;;;;;;8.27;4.95;;;19.30;99.90;;;;;;5064963;28;20052;-57
2023/07/01 12:42:41;;;;;;;10.50;5.45;;;19.20;99.90;;;;;;5063322;28;20040;-57